createdAt,value
2022-12-31T00:02:49.210Z,9.70
2022-12-31T00:07:50.623Z,9.77
2022-12-31T00:12:52.050Z,9.68
2022-12-31T00:17:53.476Z,9.75
2022-12-31T00:22:54.942Z,9.61
2022-12-31T00:27:56.367Z,9.74
2022-12-31T00:32:57.794Z,9.73
2022-12-31T00:37:59.201Z,10.00
2022-12-31T00:43:00.615Z,10.04
2022-12-31T00:48:02.194Z,10.31
2022-12-31T00:53:03.633Z,10.12
2022-12-31T00:58:05.138Z,10.26
2022-12-31T01:03:07.733Z,10.12
2022-12-31T01:08:09.217Z,10.18
2022-12-31T01:13:10.700Z,10.41
2022-12-31T01:18:12.421Z,10.22
2022-12-31T01:23:13.849Z,10.52
2022-12-31T01:28:15.278Z,10.59
2022-12-31T01:33:16.691Z,10.49
2022-12-31T01:38:18.101Z,10.52
2022-12-31T01:43:20.726Z,10.75
2022-12-31T01:48:26.524Z,10.64
2022-12-31T01:53:28.827Z,10.44
2022-12-31T01:58:40.904Z,10.80
2022-12-31T02:03:42.680Z,10.22
2022-12-31T02:08:44.746Z,10.71
2022-12-31T02:13:46.205Z,11.04
2022-12-31T02:19:06.619Z,11.16
2022-12-31T02:24:16.838Z,11.12
2022-12-31T02:30:12.654Z,11.36
2022-12-31T02:35:52.321Z,11.31
2022-12-31T02:40:54.873Z,11.32
2022-12-31T02:46:23.563Z,11.40
2022-12-31T02:51:51.600Z,11.09
2022-12-31T02:57:13.141Z,11.44
2022-12-31T03:02:19.588Z,11.46
2022-12-31T03:07:24.368Z,11.28
2022-12-31T03:12:47.661Z,11.33
2022-12-31T03:17:57.904Z,11.54
2022-12-31T03:22:59.359Z,11.52
2022-12-31T03:28:08.355Z,11.49
2022-12-31T03:33:10.191Z,11.47
2022-12-31T03:38:11.868Z,11.64
2022-12-31T03:43:13.510Z,11.64
2022-12-31T03:48:14.971Z,11.45
2022-12-31T03:53:16.636Z,11.49
2022-12-31T03:58:18.077Z,11.54
2022-12-31T04:03:19.630Z,11.40
2022-12-31T04:08:21.144Z,11.58
2022-12-31T04:13:22.497Z,11.42
2022-12-31T04:18:23.960Z,11.58
2022-12-31T04:23:25.389Z,11.54
2022-12-31T04:28:26.963Z,11.53
2022-12-31T04:33:28.397Z,11.53
2022-12-31T04:38:29.742Z,11.47
2022-12-31T04:43:31.190Z,11.56
2022-12-31T04:48:35.743Z,11.46
2022-12-31T04:53:37.679Z,11.54
2022-12-31T04:58:39.254Z,11.36
2022-12-31T05:03:41.206Z,11.46
2022-12-31T05:08:42.837Z,11.66
2022-12-31T05:13:44.468Z,11.73
2022-12-31T05:18:45.923Z,11.56
2022-12-31T05:23:47.587Z,11.53
2022-12-31T05:28:49.358Z,11.56
2022-12-31T05:33:50.957Z,11.58
2022-12-31T05:38:52.379Z,11.58
2022-12-31T05:43:53.713Z,11.93
2022-12-31T05:48:55.123Z,12.12
2022-12-31T05:53:56.470Z,12.17
2022-12-31T05:58:57.887Z,12.37
2022-12-31T06:04:00.397Z,12.75
2022-12-31T06:09:02.207Z,12.89
2022-12-31T06:14:03.911Z,12.98
2022-12-31T06:19:05.652Z,12.87
2022-12-31T06:24:07.450Z,12.91
2022-12-31T06:29:10.305Z,13.10
2022-12-31T06:34:12.549Z,13.02
2022-12-31T06:39:13.977Z,13.07
2022-12-31T06:44:15.345Z,13.10
2022-12-31T06:49:17.266Z,13.22
2022-12-31T06:54:18.750Z,13.14
2022-12-31T06:59:27.802Z,13.27
2022-12-31T07:04:45.685Z,13.43
2022-12-31T07:10:22.710Z,13.51
2022-12-31T07:15:30.173Z,13.43
2022-12-31T07:20:32.001Z,13.22
2022-12-31T07:25:36.662Z,13.55
2022-12-31T07:31:24.384Z,13.72
2022-12-31T07:36:51.998Z,13.79
2022-12-31T07:42:27.722Z,13.84
2022-12-31T07:47:30.491Z,14.17
2022-12-31T07:52:32.155Z,14.04
2022-12-31T07:57:40.852Z,14.26
2022-12-31T08:03:14.134Z,14.26
2022-12-31T08:08:30.513Z,14.47
2022-12-31T08:13:32.305Z,14.40
2022-12-31T08:18:33.950Z,14.45
2022-12-31T08:24:06.609Z,14.67
2022-12-31T08:29:34.173Z,14.35
2022-12-31T08:34:40.576Z,14.87
2022-12-31T08:39:55.545Z,14.70
2022-12-31T08:45:15.646Z,14.66
2022-12-31T08:50:18.761Z,14.89
2022-12-31T08:55:21.095Z,14.56
2022-12-31T09:00:23.064Z,15.03
2022-12-31T09:05:46.049Z,15.01
2022-12-31T09:10:57.200Z,14.95
2022-12-31T09:16:15.725Z,15.19
2022-12-31T09:21:18.589Z,14.96
2022-12-31T09:26:41.983Z,15.25
2022-12-31T09:31:52.415Z,15.31
2022-12-31T09:37:02.420Z,15.36
2022-12-31T09:42:48.524Z,15.45
2022-12-31T09:48:32.349Z,15.42
2022-12-31T09:54:04.053Z,15.34
2022-12-31T09:59:12.680Z,15.55
2022-12-31T10:04:41.925Z,15.62
2022-12-31T10:10:12.906Z,15.68
2022-12-31T10:15:29.663Z,15.76
2022-12-31T10:20:45.247Z,15.73
2022-12-31T10:26:14.502Z,15.82
2022-12-31T10:31:31.252Z,15.96
2022-12-31T10:36:56.367Z,15.95
2022-12-31T10:42:28.241Z,15.89
2022-12-31T10:48:17.821Z,15.93
2022-12-31T10:53:48.201Z,15.85
2022-12-31T10:59:14.663Z,15.81
2022-12-31T11:04:53.898Z,16.07
2022-12-31T11:10:25.443Z,15.93
2022-12-31T11:15:56.158Z,15.94
2022-12-31T11:21:15.709Z,15.97
2022-12-31T11:26:49.996Z,15.98
2022-12-31T11:31:58.126Z,15.85
2022-12-31T11:37:27.490Z,16.21
2022-12-31T11:42:55.200Z,16.20
2022-12-31T11:48:32.884Z,16.22
2022-12-31T11:53:51.477Z,16.35
2022-12-31T11:58:55.259Z,16.38
2022-12-31T12:03:56.790Z,16.14
2022-12-31T12:09:05.476Z,16.38
2022-12-31T12:14:31.120Z,16.64
2022-12-31T12:19:34.393Z,16.63
2022-12-31T12:24:36.066Z,16.87
2022-12-31T12:29:39.802Z,16.66
2022-12-31T12:34:47.711Z,16.69
2022-12-31T12:40:03.254Z,16.89
2022-12-31T12:45:16.526Z,16.92
2022-12-31T12:50:22.085Z,16.70
2022-12-31T12:55:41.677Z,16.67
2022-12-31T13:01:10.076Z,16.71
2022-12-31T13:06:33.541Z,16.63
2022-12-31T13:12:11.889Z,16.58
2022-12-31T13:17:52.717Z,16.53
2022-12-31T13:23:13.937Z,16.59
2022-12-31T13:28:16.245Z,16.38
2022-12-31T13:33:25.582Z,16.51
2022-12-31T13:38:31.689Z,16.42
2022-12-31T13:43:51.870Z,16.52
2022-12-31T13:48:58.179Z,16.41
2022-12-31T13:54:03.607Z,16.52
2022-12-31T13:59:28.360Z,16.43
2022-12-31T14:04:49.007Z,16.36
2022-12-31T14:09:50.522Z,16.24
2022-12-31T14:14:57.372Z,16.18
2022-12-31T14:20:29.092Z,16.17
2022-12-31T14:25:39.265Z,16.03
2022-12-31T14:30:44.598Z,16.03
2022-12-31T14:36:19.764Z,15.93
2022-12-31T14:42:04.331Z,16.00
2022-12-31T14:47:26.944Z,15.98
2022-12-31T14:52:47.938Z,15.97
2022-12-31T15:03:14.386Z,15.89
2022-12-31T15:08:31.727Z,15.93
2022-12-31T15:13:52.258Z,15.94
2022-12-31T15:19:26.570Z,15.89
2022-12-31T15:24:30.917Z,15.80
2022-12-31T15:29:36.564Z,15.69
2022-12-31T15:34:38.085Z,15.65
2022-12-31T15:39:42.579Z,15.68
2022-12-31T15:44:50.564Z,15.59
2022-12-31T15:49:53.808Z,15.58
2022-12-31T15:54:57.653Z,15.58
2022-12-31T16:00:01.107Z,15.41
2022-12-31T16:05:02.612Z,15.36
2022-12-31T16:10:05.564Z,15.35
2022-12-31T16:15:13.353Z,15.35
2022-12-31T16:20:32.615Z,15.33
2022-12-31T16:25:34.302Z,15.32
2022-12-31T16:30:36.479Z,15.28
2022-12-31T16:35:38.031Z,15.33
2022-12-31T16:40:42.124Z,15.23
2022-12-31T16:45:43.877Z,15.01
2022-12-31T16:50:50.538Z,15.43
2022-12-31T16:55:56.138Z,15.27
2022-12-31T17:01:25.373Z,15.40
2022-12-31T17:06:28.362Z,15.26
2022-12-31T17:11:44.109Z,15.28
2022-12-31T17:17:07.461Z,15.30
2022-12-31T17:22:17.305Z,15.47
2022-12-31T17:27:19.099Z,15.09
2022-12-31T17:32:36.962Z,15.41
2022-12-31T17:37:38.500Z,15.35
2022-12-31T17:42:40.115Z,15.45
2022-12-31T17:47:47.450Z,15.51
2022-12-31T17:52:49.028Z,15.47
2022-12-31T17:57:56.130Z,15.47
2022-12-31T18:03:00.853Z,15.40
2022-12-31T18:08:02.373Z,15.41
2022-12-31T18:13:07.033Z,15.24
2022-12-31T18:18:24.743Z,15.14
2022-12-31T18:23:30.502Z,15.04
2022-12-31T18:28:32.089Z,14.90
2022-12-31T18:33:33.630Z,14.90
2022-12-31T18:38:35.075Z,14.74
2022-12-31T18:43:36.526Z,14.93
2022-12-31T18:48:37.951Z,14.58
2022-12-31T18:53:39.406Z,14.66
2022-12-31T18:58:41.388Z,14.87
2022-12-31T19:03:42.810Z,14.58
2022-12-31T19:08:44.251Z,14.57
2022-12-31T19:13:46.049Z,14.44
2022-12-31T19:18:48.990Z,14.63
2022-12-31T19:23:50.785Z,14.60
2022-12-31T19:28:52.332Z,14.55
2022-12-31T19:33:53.781Z,14.49
2022-12-31T19:38:55.227Z,14.50
2022-12-31T19:43:56.679Z,14.68
2022-12-31T19:48:58.403Z,15.08
2022-12-31T19:53:59.820Z,14.96
2022-12-31T19:59:09.915Z,15.05
2022-12-31T20:04:11.381Z,15.21
2022-12-31T20:09:12.805Z,14.95
2022-12-31T20:14:14.228Z,15.17
2022-12-31T20:19:15.657Z,15.07
2022-12-31T20:24:17.093Z,15.28
2022-12-31T20:29:18.639Z,15.36
2022-12-31T20:34:20.073Z,15.65
2022-12-31T20:39:21.569Z,15.63
2022-12-31T20:44:23.012Z,15.55
2022-12-31T20:49:52.224Z,15.73
2022-12-31T20:54:45.857Z,15.47
2022-12-31T20:59:47.290Z,15.46
2022-12-31T21:04:48.810Z,15.61
2022-12-31T21:09:50.448Z,15.56
2022-12-31T21:14:51.869Z,15.42
2022-12-31T21:19:53.309Z,15.86
2022-12-31T21:24:54.734Z,15.66
2022-12-31T21:40:39.485Z,16.01
2022-12-31T21:45:41.511Z,15.99
2022-12-31T21:50:42.963Z,15.88
2022-12-31T21:56:03.828Z,15.88
2022-12-31T22:01:24.864Z,16.02
2022-12-31T22:06:26.462Z,15.92
2022-12-31T22:11:28.648Z,16.02
2022-12-31T22:16:30.159Z,15.98
2022-12-31T22:21:31.688Z,15.99
2022-12-31T22:26:33.133Z,15.95
2022-12-31T22:31:34.607Z,16.11
2022-12-31T22:36:36.096Z,16.06
2022-12-31T22:41:39.937Z,16.04
2022-12-31T22:46:41.981Z,16.06
2022-12-31T22:51:55.963Z,16.02
2022-12-31T22:57:01.397Z,15.94
2022-12-31T23:02:02.928Z,15.94
2022-12-31T23:07:04.402Z,16.01
2022-12-31T23:12:07.933Z,16.08
2022-12-31T23:17:34.401Z,16.02
2022-12-31T23:22:54.398Z,16.03
2022-12-31T23:27:55.825Z,15.89
2022-12-31T23:32:57.369Z,15.88
2022-12-31T23:37:58.806Z,15.97
2022-12-31T23:43:04.552Z,15.91
2022-12-31T23:48:06.037Z,15.92
2022-12-31T23:53:07.746Z,15.81
2022-12-31T23:58:09.535Z,15.72
